createdAt,value
2022-09-01T00:01:30.313Z,21.89
2022-09-01T00:04:03.286Z,21.88
2022-09-01T00:06:32.800Z,21.89
2022-09-01T00:09:03.697Z,21.89
2022-09-01T00:11:30.801Z,21.88
2022-09-01T00:13:58.785Z,21.81
2022-09-01T00:16:25.283Z,21.72
2022-09-01T00:18:53.670Z,21.61
2022-09-01T00:21:25.226Z,21.57
2022-09-01T00:23:51.924Z,21.51
2022-09-01T00:26:18.565Z,21.40
2022-09-01T00:28:45.044Z,21.28
2022-09-01T00:31:11.822Z,21.26
2022-09-01T00:33:38.870Z,21.21
2022-09-01T00:36:05.606Z,21.20
2022-09-01T00:38:32.926Z,21.26
2022-09-01T00:41:00.718Z,21.23
2022-09-01T00:43:42.035Z,21.36
2022-09-01T00:46:12.770Z,21.43
2022-09-01T00:48:39.684Z,21.43
2022-09-01T00:51:09.928Z,21.43
2022-09-01T00:53:38.566Z,21.44
2022-09-01T00:56:07.416Z,21.45
2022-09-01T00:58:36.108Z,21.46
2022-09-01T01:01:05.281Z,21.48
2022-09-01T01:03:31.772Z,21.44
2022-09-01T01:06:03.391Z,21.41
2022-09-01T01:08:36.284Z,21.38
2022-09-01T01:11:18.038Z,21.30
2022-09-01T01:14:12.059Z,21.19
2022-09-01T01:16:44.720Z,21.16
2022-09-01T01:19:50.555Z,21.08
2022-09-01T01:22:45.407Z,21.02
2022-09-01T01:25:12.827Z,21.07
2022-09-01T01:27:43.614Z,21.13
2022-09-01T01:30:11.679Z,21.17
2022-09-01T01:32:43.197Z,21.16
2022-09-01T01:35:14.655Z,21.18
2022-09-01T01:37:45.754Z,21.06
2022-09-01T01:40:17.722Z,20.95
2022-09-01T01:42:50.689Z,20.94
2022-09-01T01:45:20.126Z,20.89
2022-09-01T01:47:52.345Z,20.90
2022-09-01T01:50:35.753Z,20.86
2022-09-01T01:53:11.483Z,20.77
2022-09-01T01:55:40.048Z,20.69
2022-09-01T01:58:12.027Z,20.72
2022-09-01T02:00:38.981Z,20.70
2022-09-01T02:03:07.448Z,20.66
2022-09-01T02:05:36.164Z,20.66
2022-09-01T02:08:06.359Z,20.63
2022-09-01T02:10:44.007Z,20.57
2022-09-01T02:13:16.284Z,20.59
2022-09-01T02:15:48.899Z,20.47
2022-09-01T02:18:24.601Z,20.43
2022-09-01T02:20:52.146Z,20.33
2022-09-01T02:23:23.406Z,20.24
2022-09-01T02:26:15.163Z,20.22
2022-09-01T02:28:42.588Z,20.20
2022-09-01T02:31:11.284Z,20.20
2022-09-01T02:33:40.056Z,20.23
2022-09-01T02:36:14.153Z,20.27
2022-09-01T02:38:46.091Z,20.34
2022-09-01T02:41:14.673Z,20.34
2022-09-01T02:43:43.414Z,20.28
2022-09-01T02:46:10.636Z,20.31
2022-09-01T02:48:41.225Z,20.29
2022-09-01T02:51:14.479Z,20.27
2022-09-01T02:53:42.736Z,20.20
2022-09-01T02:56:15.374Z,20.22
2022-09-01T02:58:47.779Z,20.29
2022-09-01T03:01:30.187Z,20.18
2022-09-01T03:04:02.775Z,20.07
2022-09-01T03:06:31.402Z,20.07
2022-09-01T03:09:00.144Z,20.04
2022-09-01T03:11:31.716Z,20.09
2022-09-01T03:13:58.275Z,20.23
2022-09-01T03:16:24.808Z,20.39
2022-09-01T03:18:52.251Z,20.44
2022-09-01T03:21:20.304Z,20.37
2022-09-01T03:23:49.104Z,20.39
2022-09-01T03:26:18.591Z,20.44
2022-09-01T03:28:46.160Z,20.46
2022-09-01T03:31:12.777Z,20.29
2022-09-01T03:33:39.548Z,20.27
2022-09-01T03:36:08.401Z,20.35
2022-09-01T03:38:43.825Z,20.38
2022-09-01T03:41:12.952Z,20.39
2022-09-01T03:43:39.601Z,20.37
2022-09-01T03:46:21.779Z,20.43
2022-09-01T03:48:55.087Z,20.40
2022-09-01T03:51:23.565Z,20.36
2022-09-01T03:53:54.943Z,20.38
2022-09-01T03:56:24.652Z,20.35
2022-09-01T03:58:52.069Z,20.36
2022-09-01T04:01:19.703Z,20.40
2022-09-01T04:03:49.114Z,20.39
2022-09-01T04:06:18.602Z,20.46
2022-09-01T04:08:46.809Z,20.53
2022-09-01T04:11:19.087Z,20.58
2022-09-01T04:13:47.185Z,20.62
2022-09-01T04:16:40.721Z,20.68
2022-09-01T04:19:15.986Z,20.62
2022-09-01T04:21:43.886Z,20.56
2022-09-01T04:24:12.163Z,20.59
2022-09-01T04:26:38.704Z,20.61
2022-09-01T04:29:09.049Z,20.62
2022-09-01T04:31:38.679Z,20.56
2022-09-01T04:34:11.630Z,20.54
2022-09-01T04:36:39.000Z,20.44
2022-09-01T04:39:09.445Z,20.32
2022-09-01T04:41:50.512Z,20.12
2022-09-01T04:44:18.974Z,20.08
2022-09-01T04:46:50.718Z,19.95
2022-09-01T04:49:22.195Z,19.87
2022-09-01T04:51:53.625Z,19.90
2022-09-01T04:54:22.560Z,19.93
2022-09-01T04:56:51.119Z,19.95
2022-09-01T04:59:21.568Z,19.94
2022-09-01T05:01:50.385Z,20.01
2022-09-01T05:04:20.313Z,20.08
2022-09-01T05:06:54.502Z,20.11
2022-09-01T05:09:20.997Z,20.20
2022-09-01T05:11:48.486Z,20.20
2022-09-01T05:14:18.428Z,20.19
2022-09-01T05:16:45.549Z,20.21
2022-09-01T05:19:14.803Z,20.27
2022-09-01T05:21:46.290Z,20.40
2022-09-01T05:24:19.069Z,20.46
2022-09-01T05:26:50.745Z,20.45
2022-09-01T05:29:17.819Z,20.56
2022-09-01T05:31:46.941Z,20.62
2022-09-01T05:34:19.974Z,20.70
2022-09-01T05:36:50.501Z,20.75
2022-09-01T05:39:17.095Z,20.78
2022-09-01T05:41:43.855Z,20.79
2022-09-01T05:44:11.173Z,20.82
2022-09-01T05:46:39.443Z,20.78
2022-09-01T05:49:08.130Z,20.79
2022-09-01T05:51:45.789Z,20.83
2022-09-01T05:54:16.332Z,20.79
2022-09-01T05:56:44.579Z,20.73
2022-09-01T05:59:28.603Z,20.58
2022-09-01T06:01:55.598Z,20.52
2022-09-01T06:04:25.422Z,20.61
2022-09-01T06:07:10.215Z,20.64
2022-09-01T06:09:43.880Z,20.72
2022-09-01T06:12:18.938Z,20.72
2022-09-01T06:14:47.035Z,20.75
2022-09-01T06:17:16.362Z,20.85
2022-09-01T06:19:43.865Z,21.09
2022-09-01T06:22:10.846Z,21.09
2022-09-01T06:24:40.834Z,21.18
2022-09-01T06:27:10.494Z,21.54
2022-09-01T06:29:39.705Z,21.77
2022-09-01T06:32:09.840Z,21.93
2022-09-01T06:34:42.463Z,21.81
2022-09-01T06:37:10.988Z,21.38
2022-09-01T06:39:37.721Z,21.68
2022-09-01T06:42:06.211Z,21.99
2022-09-01T06:44:33.298Z,21.54
2022-09-01T06:47:00.098Z,21.22
2022-09-01T06:49:32.439Z,21.67
2022-09-01T06:52:00.533Z,21.93
2022-09-01T06:54:27.087Z,21.96
2022-09-01T06:56:53.651Z,22.08
2022-09-01T06:59:21.733Z,21.79
2022-09-01T07:01:49.280Z,21.92
2022-09-01T07:04:20.065Z,22.01
2022-09-01T07:06:59.672Z,22.13
2022-09-01T07:09:38.887Z,22.17
2022-09-01T07:12:29.420Z,22.23
2022-09-01T07:17:52.308Z,22.40
2022-09-01T07:20:24.503Z,22.39
2022-09-01T07:23:08.173Z,22.55
2022-09-01T07:26:01.237Z,22.53
2022-09-01T07:28:36.069Z,22.60
2022-09-01T07:34:37.699Z,22.60
2022-09-01T07:45:27.633Z,22.53
2022-09-01T07:47:54.892Z,22.48
2022-09-01T07:50:38.560Z,22.49
2022-09-01T07:53:17.657Z,22.78
2022-09-01T07:55:49.889Z,23.00
2022-09-01T07:58:18.500Z,23.08
2022-09-01T08:00:47.425Z,23.16
2022-09-01T08:03:14.631Z,23.16
2022-09-01T08:05:41.338Z,23.37
2022-09-01T08:08:18.601Z,23.42
2022-09-01T08:10:49.030Z,23.35
2022-09-01T08:13:16.998Z,23.52
2022-09-01T08:18:50.162Z,23.65
2022-09-01T08:21:18.575Z,23.73
2022-09-01T08:23:45.244Z,23.83
2022-09-01T08:26:15.446Z,23.95
2022-09-01T08:28:46.014Z,23.97
2022-09-01T08:31:13.740Z,23.98
2022-09-01T08:33:42.604Z,23.86
2022-09-01T08:36:12.538Z,23.97
2022-09-01T08:38:40.634Z,24.13
2022-09-01T08:41:35.027Z,24.20
2022-09-01T08:44:27.265Z,24.15
2022-09-01T08:47:08.141Z,24.28
2022-09-01T08:49:44.040Z,24.35
2022-09-01T08:52:25.286Z,24.35
2022-09-01T08:55:00.666Z,24.42
2022-09-01T08:57:36.776Z,24.55
2022-09-01T09:00:09.179Z,24.57
2022-09-01T09:02:54.131Z,24.61
2022-09-01T09:05:35.757Z,24.60
2022-09-01T09:08:24.797Z,24.56
2022-09-01T09:11:00.923Z,24.23
2022-09-01T09:13:36.307Z,24.18
2022-09-01T09:16:10.753Z,24.51
2022-09-01T09:18:56.775Z,24.77
2022-09-01T09:21:50.700Z,24.83
2022-09-01T09:24:52.868Z,24.82
2022-09-01T09:27:30.092Z,24.94
2022-09-01T09:30:11.329Z,25.06
2022-09-01T09:35:50.479Z,25.23
2022-09-01T09:40:25.114Z,25.19
2022-09-01T09:41:26.848Z,25.26
2022-09-01T09:44:03.109Z,25.18
2022-09-01T09:46:32.734Z,25.22
2022-09-01T09:49:34.727Z,25.23
2022-09-01T09:52:10.071Z,25.30
2022-09-01T09:54:38.869Z,25.24
2022-09-01T09:57:08.302Z,25.20
2022-09-01T10:00:00.574Z,25.18
2022-09-01T10:02:43.104Z,25.32
2022-09-01T10:05:33.744Z,25.39
2022-09-01T10:08:00.144Z,25.63
2022-09-01T10:10:31.901Z,25.70
2022-09-01T10:12:59.795Z,25.52
2022-09-01T10:15:30.747Z,25.72
2022-09-01T10:18:21.040Z,25.65
2022-09-01T10:21:00.453Z,25.48
2022-09-01T10:23:31.574Z,25.63
2022-09-01T10:26:09.749Z,25.65
2022-09-01T10:28:47.237Z,25.53
2022-09-01T10:31:17.917Z,25.50
2022-09-01T10:33:45.125Z,25.43
2022-09-01T10:36:14.380Z,25.52
2022-09-01T10:38:46.861Z,25.53
2022-09-01T10:41:44.023Z,25.23
2022-09-01T10:44:13.410Z,25.33
2022-09-01T10:46:50.484Z,25.47
2022-09-01T10:49:28.028Z,25.88
2022-09-01T10:52:03.268Z,26.32
2022-09-01T10:54:55.957Z,26.62
2022-09-01T10:57:31.622Z,26.74
2022-09-01T11:00:39.944Z,27.20
2022-09-01T11:06:13.126Z,26.44
2022-09-01T11:08:58.467Z,26.29
2022-09-01T11:11:34.155Z,26.08
2022-09-01T11:14:01.169Z,25.93
2022-09-01T11:16:49.345Z,25.90
2022-09-01T11:19:24.317Z,25.97
2022-09-01T11:22:23.364Z,25.94
2022-09-01T11:25:12.523Z,26.02
2022-09-01T11:27:48.473Z,26.63
2022-09-01T11:30:41.812Z,26.78
2022-09-01T11:33:11.519Z,26.61
2022-09-01T11:35:37.996Z,26.65
2022-09-01T11:38:07.800Z,26.84
2022-09-01T11:40:35.772Z,26.85
2022-09-01T11:43:12.429Z,26.89
2022-09-01T11:45:51.986Z,26.62
2022-09-01T11:48:18.845Z,26.80
2022-09-01T11:50:45.402Z,26.81
2022-09-01T11:53:22.094Z,26.68
2022-09-01T11:55:51.679Z,26.87
2022-09-01T11:58:34.523Z,26.64
2022-09-01T12:01:19.906Z,26.72
2022-09-01T12:03:48.714Z,26.89
2022-09-01T12:06:25.277Z,26.87
2022-09-01T12:08:58.689Z,26.78
2022-09-01T12:11:31.350Z,26.72
2022-09-01T12:14:12.117Z,26.86
2022-09-01T12:16:42.403Z,27.11
2022-09-01T12:19:22.108Z,27.12
2022-09-01T12:21:58.938Z,26.98
2022-09-01T12:24:26.404Z,27.11
2022-09-01T12:26:55.736Z,27.21
2022-09-01T12:29:23.195Z,26.97
2022-09-01T12:31:52.570Z,27.18
2022-09-01T12:34:47.878Z,27.26
2022-09-01T12:37:25.289Z,27.20
2022-09-01T12:39:54.959Z,27.32
2022-09-01T12:42:21.424Z,27.26
2022-09-01T12:45:03.330Z,27.19
2022-09-01T12:47:48.194Z,27.20
2022-09-01T12:50:16.428Z,27.17
2022-09-01T12:52:52.766Z,27.33
2022-09-01T12:58:12.658Z,27.35
2022-09-01T13:01:05.680Z,27.15
2022-09-01T13:03:34.746Z,27.04
2022-09-01T13:06:03.395Z,27.14
2022-09-01T13:08:33.106Z,27.28
2022-09-01T13:11:09.140Z,27.20
2022-09-01T13:13:37.467Z,27.33
2022-09-01T13:16:08.451Z,27.43
2022-09-01T13:19:10.433Z,27.09
2022-09-01T13:21:21.834Z,26.98
2022-09-01T13:23:50.752Z,27.07
2022-09-01T13:26:17.585Z,27.19
2022-09-01T13:28:45.939Z,27.20
2022-09-01T13:31:29.477Z,27.38
2022-09-01T13:34:21.653Z,27.43
2022-09-01T13:36:45.482Z,27.38
2022-09-01T13:39:15.451Z,27.43
2022-09-01T13:41:42.372Z,27.48
2022-09-01T13:44:10.404Z,27.42
2022-09-01T13:46:59.027Z,27.46
2022-09-01T13:52:11.481Z,27.70
2022-09-01T13:54:37.996Z,27.67
2022-09-01T13:57:05.968Z,27.68
2022-09-01T13:59:33.100Z,27.69
2022-09-01T14:02:01.527Z,27.71
2022-09-01T14:04:28.164Z,27.48
2022-09-01T14:06:55.164Z,27.19
2022-09-01T14:09:21.994Z,27.29
2022-09-01T14:11:48.488Z,27.11
2022-09-01T14:14:15.038Z,27.03
2022-09-01T14:16:41.575Z,26.85
2022-09-01T14:19:08.388Z,26.90
2022-09-01T14:21:34.841Z,27.12
2022-09-01T14:24:01.352Z,26.89
2022-09-01T14:26:28.125Z,26.78
2022-09-01T14:28:54.975Z,26.76
2022-09-01T14:31:21.601Z,26.87
2022-09-01T14:33:49.093Z,26.87
2022-09-01T14:36:22.318Z,27.01
2022-09-01T14:38:49.890Z,27.02
2022-09-01T14:41:22.971Z,27.14
2022-09-01T14:43:53.808Z,27.16
2022-09-01T14:46:21.044Z,27.19
2022-09-01T14:48:48.738Z,27.20
2022-09-01T14:51:24.581Z,27.11
2022-09-01T14:53:52.654Z,27.18
2022-09-01T14:56:19.776Z,27.07
2022-09-01T14:58:47.234Z,27.02
2022-09-01T15:01:33.080Z,27.09
2022-09-01T15:04:00.514Z,27.13
2022-09-01T15:06:26.989Z,27.10
2022-09-01T15:08:53.503Z,27.02
2022-09-01T15:11:21.180Z,26.94
2022-09-01T15:13:50.337Z,26.99
2022-09-01T15:16:23.036Z,27.11
2022-09-01T15:18:49.659Z,27.03
2022-09-01T15:21:23.650Z,27.00
2022-09-01T15:23:50.936Z,27.06
2022-09-01T15:26:18.356Z,27.05
2022-09-01T15:28:45.615Z,27.08
2022-09-01T15:31:14.474Z,27.21
2022-09-01T15:33:43.990Z,27.19
2022-09-01T15:36:17.513Z,27.21
2022-09-01T15:38:44.561Z,27.08
2022-09-01T15:41:19.996Z,27.10
2022-09-01T15:43:46.525Z,27.14
2022-09-01T15:46:14.374Z,27.06
2022-09-01T15:48:46.930Z,26.95
2022-09-01T15:51:22.523Z,26.89
2022-09-01T15:53:50.120Z,26.89
2022-09-01T15:56:18.504Z,26.98
2022-09-01T15:59:00.771Z,26.93
2022-09-01T16:01:30.786Z,26.89
2022-09-01T16:03:57.787Z,26.77
2022-09-01T16:06:26.385Z,26.73
2022-09-01T16:08:54.373Z,26.73
2022-09-01T16:11:23.415Z,26.75
2022-09-01T16:13:53.626Z,26.71
2022-09-01T16:16:20.122Z,26.62
2022-09-01T16:18:55.605Z,26.56
2022-09-01T16:21:40.495Z,26.56
2022-09-01T16:24:12.083Z,26.52
2022-09-01T16:26:39.223Z,26.52
2022-09-01T16:29:15.720Z,26.53
2022-09-01T16:31:42.263Z,26.53
2022-09-01T16:34:18.743Z,26.43
2022-09-01T16:36:55.160Z,26.37
2022-09-01T16:39:34.964Z,26.34
2022-09-01T16:42:13.329Z,26.30
2022-09-01T16:44:53.790Z,26.27
2022-09-01T16:47:35.040Z,26.28
2022-09-01T16:50:16.787Z,26.25
2022-09-01T16:53:21.976Z,26.15
2022-09-01T16:56:11.968Z,26.10
2022-09-01T17:02:17.850Z,25.94
2022-09-01T17:04:49.810Z,25.92
2022-09-01T17:07:21.671Z,25.88
2022-09-01T17:10:06.036Z,25.90
2022-09-01T17:12:48.967Z,25.84
2022-09-01T17:15:27.674Z,25.86
2022-09-01T17:18:22.829Z,25.76
2022-09-01T17:20:58.424Z,25.65
2022-09-01T17:23:38.062Z,25.58
2022-09-01T17:26:12.117Z,25.43
2022-09-01T17:28:44.981Z,25.28
2022-09-01T17:31:22.070Z,25.18
2022-09-01T17:34:09.873Z,25.10
2022-09-01T17:37:14.215Z,25.02
2022-09-01T17:40:17.096Z,24.98
2022-09-01T17:42:57.938Z,24.90
2022-09-01T17:45:38.621Z,24.86
2022-09-01T17:48:17.937Z,24.77
2022-09-01T17:51:16.812Z,24.74
2022-09-01T17:54:12.436Z,24.77
2022-09-01T17:56:48.842Z,24.69
2022-09-01T17:59:30.255Z,24.65
2022-09-01T18:02:07.810Z,24.58
2022-09-01T18:04:48.943Z,24.51
2022-09-01T18:07:19.698Z,24.43
2022-09-01T18:09:52.443Z,24.38
2022-09-01T18:12:27.031Z,24.34
2022-09-01T18:15:08.810Z,24.31
2022-09-01T18:17:41.129Z,24.33
2022-09-01T18:20:24.608Z,24.29
2022-09-01T18:22:54.275Z,24.14
2022-09-01T18:25:31.265Z,24.03
2022-09-01T18:27:57.731Z,23.86
2022-09-01T18:30:42.785Z,23.83
2022-09-01T18:33:29.626Z,23.84
2022-09-01T18:36:09.732Z,23.64
2022-09-01T18:38:53.099Z,23.64
2022-09-01T18:41:28.567Z,23.65
2022-09-01T18:44:01.929Z,23.55
2022-09-01T18:46:41.046Z,23.55
2022-09-01T18:49:31.207Z,23.55
2022-09-01T18:52:27.142Z,23.52
2022-09-01T18:55:16.654Z,23.39
2022-09-01T18:57:47.092Z,23.38
2022-09-01T19:00:19.619Z,23.35
2022-09-01T19:02:55.718Z,23.35
2022-09-01T19:05:33.276Z,23.23
2022-09-01T19:08:27.541Z,23.14
2022-09-01T19:11:11.138Z,22.94
2022-09-01T19:13:53.548Z,22.89
2022-09-01T19:16:38.612Z,22.82
2022-09-01T19:19:07.967Z,22.92
2022-09-01T19:21:36.292Z,22.97
2022-09-01T19:24:28.007Z,22.96
2022-09-01T19:27:03.282Z,22.83
2022-09-01T19:29:36.323Z,22.88
2022-09-01T19:32:08.715Z,22.80
2022-09-01T19:34:42.980Z,22.77
2022-09-01T19:37:11.071Z,22.76
2022-09-01T19:39:44.587Z,22.74
2022-09-01T19:42:39.833Z,22.57
2022-09-01T19:45:22.925Z,22.66
2022-09-01T19:47:55.851Z,22.65
2022-09-01T19:50:31.946Z,22.50
2022-09-01T19:53:07.661Z,22.52
2022-09-01T19:55:53.910Z,22.40
2022-09-01T19:58:38.822Z,22.46
2022-09-01T20:01:12.036Z,22.41
2022-09-01T20:03:50.487Z,22.34
2022-09-01T20:06:42.554Z,22.43
2022-09-01T20:09:14.965Z,22.42
2022-09-01T20:11:41.446Z,22.33
2022-09-01T20:14:20.293Z,22.27
2022-09-01T20:16:52.813Z,22.23
2022-09-01T20:19:56.740Z,22.31
2022-09-01T20:22:32.683Z,22.26
2022-09-01T20:25:10.194Z,22.18
2022-09-01T20:28:17.649Z,22.16
2022-09-01T20:30:51.030Z,22.19
2022-09-01T20:33:44.105Z,22.10
2022-09-01T20:36:41.410Z,21.93
2022-09-01T20:39:39.030Z,21.93
2022-09-01T20:42:23.041Z,21.92
2022-09-01T20:44:58.439Z,21.93
2022-09-01T20:47:27.885Z,21.89
2022-09-01T20:49:56.873Z,21.81
2022-09-01T20:52:56.152Z,21.81
2022-09-01T20:55:58.043Z,21.76
2022-09-01T20:58:46.710Z,21.79
2022-09-01T21:01:54.986Z,21.76
2022-09-01T21:04:36.838Z,21.70
2022-09-01T21:07:19.215Z,21.60
2022-09-01T21:10:17.168Z,21.63
2022-09-01T21:12:48.689Z,21.48
2022-09-01T21:16:03.604Z,21.41
2022-09-01T21:18:46.583Z,21.26
2022-09-01T21:21:36.105Z,21.29
2022-09-01T21:24:03.932Z,21.26
2022-09-01T21:26:31.205Z,21.36
2022-09-01T21:29:04.256Z,21.27
2022-09-01T21:31:30.982Z,21.20
2022-09-01T21:33:57.468Z,21.25
2022-09-01T21:36:23.970Z,21.24
2022-09-01T21:38:50.547Z,21.20
2022-09-01T21:41:17.074Z,21.15
2022-09-01T21:43:45.762Z,21.12
2022-09-01T21:46:14.538Z,21.08
2022-09-01T21:48:41.298Z,21.09
2022-09-01T21:51:07.867Z,21.04
2022-09-01T21:53:34.362Z,20.93
2022-09-01T21:56:01.148Z,20.96
2022-09-01T21:58:27.913Z,21.07
2022-09-01T22:00:54.544Z,20.99
2022-09-01T22:03:21.242Z,20.97
2022-09-01T22:05:47.753Z,20.99
2022-09-01T22:08:17.270Z,20.99
2022-09-01T22:10:47.090Z,21.01
2022-09-01T22:13:13.903Z,20.96
2022-09-01T22:15:44.048Z,21.00
2022-09-01T22:18:11.186Z,20.93
2022-09-01T22:20:38.297Z,20.99
2022-09-01T22:23:05.009Z,21.03
2022-09-01T22:25:33.049Z,21.12
2022-09-01T22:28:01.697Z,21.01
2022-09-01T22:30:28.930Z,21.09
2022-09-01T22:32:55.485Z,21.08
2022-09-01T22:35:22.115Z,21.00
2022-09-01T22:37:49.127Z,20.94
2022-09-01T22:40:16.580Z,20.91
2022-09-01T22:42:43.617Z,21.04
2022-09-01T22:45:13.004Z,20.92
2022-09-01T22:47:39.683Z,20.88
2022-09-01T22:50:08.208Z,20.88
2022-09-01T22:52:35.901Z,20.95
2022-09-01T22:55:03.409Z,20.94
2022-09-01T22:57:30.156Z,20.83
2022-09-01T22:59:56.691Z,20.78
2022-09-01T23:02:23.500Z,20.67
2022-09-01T23:04:50.377Z,20.63
2022-09-01T23:07:16.889Z,20.64
2022-09-01T23:09:43.365Z,20.68
2022-09-01T23:12:09.849Z,20.69
2022-09-01T23:14:36.312Z,20.70
2022-09-01T23:17:02.965Z,20.81
2022-09-01T23:19:29.504Z,20.77
2022-09-01T23:21:56.022Z,20.73
2022-09-01T23:24:22.774Z,20.65
2022-09-01T23:26:49.776Z,20.63
2022-09-01T23:29:16.806Z,20.53
2022-09-01T23:31:44.198Z,20.59
2022-09-01T23:34:11.183Z,20.64
2022-09-01T23:36:37.698Z,20.58
2022-09-01T23:39:05.771Z,20.56
2022-09-01T23:41:34.181Z,20.56
2022-09-01T23:44:03.591Z,20.52
2022-09-01T23:46:42.053Z,20.45
2022-09-01T23:49:10.300Z,20.43
2022-09-01T23:51:37.040Z,20.32
2022-09-01T23:54:03.702Z,20.31
2022-09-01T23:56:30.693Z,20.22
2022-09-01T23:58:58.484Z,20.23
